Felker Army Air Field
KFAF : rendu visible

Aérodrome :











RETROUVEZ-NOUS SUR...

 
LOGIN :

S'inscrire | Disclaimer

   EN    FR    IT 

 









Légende :    VFR   VFR Marginal   IFR   IFR Intensif   IFR Très Intensif
Visi : 
Plafond : 
>= 8 km
>= 3000ft
5 à 8 km
1000 à 3000 ft
1500m à 5 km
500 à 1000 ft
800 à 1500m
200 à 500 ft
< 800m
< 200 ft
Symboles :   Orages  Brouillard  Fortes neiges  Fortes précipitations  Vent > 20 kt






- Altitude de l'aérodrome : 12 ft


KFAF - Felker Army Air Field

DERNIER METAR :
  • 261756Z AUTO 05006KT 10SM OVC018 23/18 A3016 RMK AO2 SLP216 T02260175 10227 20183 58007 $

METARs EXPIRÉS :
  • 261716Z AUTO 07005KT 10SM BKN015 OVC023 23/18 A3018 RMK AO2 BKN V OVC SLP223 $
  • 261656Z AUTO 06006KT 10SM OVC012 22/17 A3018 RMK AO2 SLP223 T02150173 $
  • 261556Z AUTO 03004KT 10SM OVC010 21/17 A3019 RMK AO2 SLP226 T02050171 $

TAF TAF KFAF
Valide du 26 à 18h jusqu'au 28 à 00h UTC


261800Z 2618/2724 06009KT 9999 SCT009 BKN012 QNH3008INS
BECMG 2701/2702 08006KT 9999 OVC005 QNH3011INS
BECMG 2703/2704 05006KT 4800 BR BKN005 OVC009 QNH3014INS
BECMG 2713/2714 03006KT 6000 -SHRA BKN009 OVC015 QNH3008INS
BECMG 2721/2722 09010G15KT 9999 NSW SCT015 BKN020 QNH3007INS TX23/2718Z TN17/2710Z LAST NO AMDS AFT 2619 NEXT 2710
FIR KZDC / Amérique du Nord



MET'MAP, la Météo Aéronautique d'un coup d'oeil ! - Copyright ORBIFLY Décembre 2007 - Disclaimer

ORBIFLY MET'MAP TEAM :

Programmation & Développement : Alexandra Zaïnal
Sur une idée originale de : Baudouin d'Aumeries
Assistance à la programmation : Marc-Olivier Méhu
Soutien technique & logistique : Manuel Goepfert

Contact : metmap@orbifly.com




SOURCES & CREDITS :

   NOAA       Earth
Advisory